sensor_id;sensor_type;location;lat;lon;timestamp;P1;durP1;ratioP1;P2;durP2;ratioP2
43606;SDS011;29197;44.788;10.366;2024-02-21T00:02:31;23.00;;;14.30;;
43606;SDS011;29197;44.788;10.366;2024-02-21T00:05:20;25.17;;;14.73;;
43606;SDS011;29197;44.788;10.366;2024-02-21T00:08:08;22.83;;;15.00;;
43606;SDS011;29197;44.788;10.366;2024-02-21T00:10:57;25.63;;;15.27;;
43606;SDS011;29197;44.788;10.366;2024-02-21T00:13:46;24.27;;;15.20;;
43606;SDS011;29197;44.788;10.366;2024-02-21T00:16:36;24.33;;;14.87;;
43606;SDS011;29197;44.788;10.366;2024-02-21T00:19:24;27.47;;;16.33;;
43606;SDS011;29197;44.788;10.366;2024-02-21T00:22:13;25.83;;;15.07;;
43606;SDS011;29197;44.788;10.366;2024-02-21T00:25:02;26.47;;;15.50;;
43606;SDS011;29197;44.788;10.366;2024-02-21T00:27:51;24.37;;;14.93;;
43606;SDS011;29197;44.788;10.366;2024-02-21T00:30:40;22.53;;;14.67;;
43606;SDS011;29197;44.788;10.366;2024-02-21T00:33:30;27.60;;;16.07;;
43606;SDS011;29197;44.788;10.366;2024-02-21T00:36:19;24.50;;;15.27;;
43606;SDS011;29197;44.788;10.366;2024-02-21T00:39:08;26.83;;;15.90;;
43606;SDS011;29197;44.788;10.366;2024-02-21T00:41:56;22.70;;;14.43;;
43606;SDS011;29197;44.788;10.366;2024-02-21T00:44:45;26.17;;;15.37;;
43606;SDS011;29197;44.788;10.366;2024-02-21T00:47:33;22.97;;;14.77;;
43606;SDS011;29197;44.788;10.366;2024-02-21T00:50:23;24.07;;;15.17;;
43606;SDS011;29197;44.788;10.366;2024-02-21T00:53:12;24.73;;;15.17;;
43606;SDS011;29197;44.788;10.366;2024-02-21T00:56:01;20.97;;;13.40;;
43606;SDS011;29197;44.788;10.366;2024-02-21T00:58:50;23.03;;;14.27;;
43606;SDS011;29197;44.788;10.366;2024-02-21T01:01:38;21.50;;;14.13;;
43606;SDS011;29197;44.788;10.366;2024-02-21T01:04:29;22.47;;;13.20;;
43606;SDS011;29197;44.788;10.366;2024-02-21T01:07:19;21.37;;;13.53;;
43606;SDS011;29197;44.788;10.366;2024-02-21T01:10:08;20.67;;;13.57;;
43606;SDS011;29197;44.788;10.366;2024-02-21T01:12:57;20.53;;;12.70;;
43606;SDS011;29197;44.788;10.366;2024-02-21T01:15:47;20.67;;;12.83;;
43606;SDS011;29197;44.788;10.366;2024-02-21T01:18:37;20.20;;;13.67;;
43606;SDS011;29197;44.788;10.366;2024-02-21T01:21:26;20.57;;;13.07;;
43606;SDS011;29197;44.788;10.366;2024-02-21T01:24:16;25.03;;;14.33;;
43606;SDS011;29197;44.788;10.366;2024-02-21T01:27:04;22.77;;;13.60;;
43606;SDS011;29197;44.788;10.366;2024-02-21T01:29:53;20.00;;;12.93;;
43606;SDS011;29197;44.788;10.366;2024-02-21T01:32:41;23.73;;;14.47;;
43606;SDS011;29197;44.788;10.366;2024-02-21T01:35:30;23.23;;;14.60;;
43606;SDS011;29197;44.788;10.366;2024-02-21T01:38:19;19.83;;;13.03;;
43606;SDS011;29197;44.788;10.366;2024-02-21T01:41:09;20.87;;;14.13;;
43606;SDS011;29197;44.788;10.366;2024-02-21T01:43:58;23.63;;;14.17;;
43606;SDS011;29197;44.788;10.366;2024-02-21T01:46:46;21.20;;;13.37;;
43606;SDS011;29197;44.788;10.366;2024-02-21T01:49:35;23.07;;;13.67;;
43606;SDS011;29197;44.788;10.366;2024-02-21T01:52:24;23.17;;;14.17;;
43606;SDS011;29197;44.788;10.366;2024-02-21T01:55:14;21.23;;;13.77;;
43606;SDS011;29197;44.788;10.366;2024-02-21T01:58:05;24.00;;;14.40;;
43606;SDS011;29197;44.788;10.366;2024-02-21T02:00:54;24.17;;;13.70;;
43606;SDS011;29197;44.788;10.366;2024-02-21T02:03:45;24.23;;;13.47;;
43606;SDS011;29197;44.788;10.366;2024-02-21T02:06:34;21.40;;;13.23;;
43606;SDS011;29197;44.788;10.366;2024-02-21T02:09:23;26.53;;;14.27;;
43606;SDS011;29197;44.788;10.366;2024-02-21T02:12:12;22.53;;;13.67;;
43606;SDS011;29197;44.788;10.366;2024-02-21T02:15:02;21.20;;;13.27;;
43606;SDS011;29197;44.788;10.366;2024-02-21T02:17:52;23.10;;;14.13;;
43606;SDS011;29197;44.788;10.366;2024-02-21T02:20:41;25.93;;;14.10;;
43606;SDS011;29197;44.788;10.366;2024-02-21T02:23:33;20.77;;;13.63;;
43606;SDS011;29197;44.788;10.366;2024-02-21T02:26:22;20.27;;;13.10;;
43606;SDS011;29197;44.788;10.366;2024-02-21T02:29:11;25.27;;;13.60;;
43606;SDS011;29197;44.788;10.366;2024-02-21T02:31:59;27.23;;;14.93;;
43606;SDS011;29197;44.788;10.366;2024-02-21T02:34:48;22.10;;;13.73;;
43606;SDS011;29197;44.788;10.366;2024-02-21T02:37:36;20.03;;;13.60;;
43606;SDS011;29197;44.788;10.366;2024-02-21T02:40:27;22.33;;;13.90;;
43606;SDS011;29197;44.788;10.366;2024-02-21T02:43:16;20.67;;;12.40;;
43606;SDS011;29197;44.788;10.366;2024-02-21T02:46:05;19.10;;;12.43;;
43606;SDS011;29197;44.788;10.366;2024-02-21T02:48:53;20.77;;;12.63;;
43606;SDS011;29197;44.788;10.366;2024-02-21T02:51:42;19.07;;;11.77;;
43606;SDS011;29197;44.788;10.366;2024-02-21T02:54:31;17.53;;;11.50;;
43606;SDS011;29197;44.788;10.366;2024-02-21T02:57:21;19.90;;;11.23;;
43606;SDS011;29197;44.788;10.366;2024-02-21T03:00:10;18.90;;;10.90;;
43606;SDS011;29197;44.788;10.366;2024-02-21T03:02:59;16.17;;;10.33;;
43606;SDS011;29197;44.788;10.366;2024-02-21T03:05:50;17.10;;;9.50;;
43606;SDS011;29197;44.788;10.366;2024-02-21T03:08:39;16.73;;;10.93;;
43606;SDS011;29197;44.788;10.366;2024-02-21T03:11:27;20.07;;;10.77;;
43606;SDS011;29197;44.788;10.366;2024-02-21T03:14:18;18.10;;;11.10;;
43606;SDS011;29197;44.788;10.366;2024-02-21T03:17:07;16.43;;;10.57;;
43606;SDS011;29197;44.788;10.366;2024-02-21T03:19:56;19.37;;;11.63;;
43606;SDS011;29197;44.788;10.366;2024-02-21T03:22:45;17.20;;;10.27;;
43606;SDS011;29197;44.788;10.366;2024-02-21T03:25:34;22.20;;;13.77;;
43606;SDS011;29197;44.788;10.366;2024-02-21T03:28:23;20.33;;;12.57;;
43606;SDS011;29197;44.788;10.366;2024-02-21T03:31:13;18.53;;;11.30;;
43606;SDS011;29197;44.788;10.366;2024-02-21T03:34:02;17.23;;;10.90;;
43606;SDS011;29197;44.788;10.366;2024-02-21T03:36:51;16.07;;;10.87;;
43606;SDS011;29197;44.788;10.366;2024-02-21T03:39:39;19.60;;;11.77;;
43606;SDS011;29197;44.788;10.366;2024-02-21T03:42:28;18.60;;;11.23;;
43606;SDS011;29197;44.788;10.366;2024-02-21T03:45:18;21.07;;;12.50;;
43606;SDS011;29197;44.788;10.366;2024-02-21T03:48:08;18.80;;;12.13;;
43606;SDS011;29197;44.788;10.366;2024-02-21T03:50:57;20.93;;;11.63;;
43606;SDS011;29197;44.788;10.366;2024-02-21T03:53:46;18.33;;;11.00;;
43606;SDS011;29197;44.788;10.366;2024-02-21T03:56:37;17.00;;;10.60;;
43606;SDS011;29197;44.788;10.366;2024-02-21T03:59:26;17.90;;;10.73;;
43606;SDS011;29197;44.788;10.366;2024-02-21T04:02:15;22.23;;;11.23;;
43606;SDS011;29197;44.788;10.366;2024-02-21T04:05:05;20.27;;;12.23;;
43606;SDS011;29197;44.788;10.366;2024-02-21T04:07:58;18.50;;;11.17;;
43606;SDS011;29197;44.788;10.366;2024-02-21T04:10:47;15.97;;;10.43;;
43606;SDS011;29197;44.788;10.366;2024-02-21T04:13:35;17.33;;;11.00;;
43606;SDS011;29197;44.788;10.366;2024-02-21T04:16:24;18.87;;;12.57;;
43606;SDS011;29197;44.788;10.366;2024-02-21T04:19:13;18.53;;;11.57;;
43606;SDS011;29197;44.788;10.366;2024-02-21T04:22:03;18.30;;;11.57;;
43606;SDS011;29197;44.788;10.366;2024-02-21T04:24:52;20.73;;;12.70;;
43606;SDS011;29197;44.788;10.366;2024-02-21T04:27:40;17.63;;;11.10;;
43606;SDS011;29197;44.788;10.366;2024-02-21T04:30:29;18.10;;;11.43;;
43606;SDS011;29197;44.788;10.366;2024-02-21T04:33:18;21.77;;;12.53;;
43606;SDS011;29197;44.788;10.366;2024-02-21T04:36:07;21.03;;;12.47;;
43606;SDS011;29197;44.788;10.366;2024-02-21T04:38:57;23.40;;;12.97;;
43606;SDS011;29197;44.788;10.366;2024-02-21T04:41:46;18.27;;;11.60;;
43606;SDS011;29197;44.788;10.366;2024-02-21T04:44:34;22.07;;;12.90;;
43606;SDS011;29197;44.788;10.366;2024-02-21T04:47:23;19.40;;;11.83;;
43606;SDS011;29197;44.788;10.366;2024-02-21T04:50:12;22.63;;;12.53;;
43606;SDS011;29197;44.788;10.366;2024-02-21T04:53:01;23.07;;;14.33;;
43606;SDS011;29197;44.788;10.366;2024-02-21T04:55:51;21.47;;;12.73;;
43606;SDS011;29197;44.788;10.366;2024-02-21T04:58:39;20.13;;;11.97;;
43606;SDS011;29197;44.788;10.366;2024-02-21T05:01:28;19.90;;;11.83;;
43606;SDS011;29197;44.788;10.366;2024-02-21T05:04:18;19.97;;;12.50;;
43606;SDS011;29197;44.788;10.366;2024-02-21T05:07:06;19.40;;;12.07;;
43606;SDS011;29197;44.788;10.366;2024-02-21T05:09:57;18.87;;;12.00;;
43606;SDS011;29197;44.788;10.366;2024-02-21T05:12:51;21.73;;;11.97;;
43606;SDS011;29197;44.788;10.366;2024-02-21T05:15:40;16.92;;;11.88;;
43606;SDS011;29197;44.788;10.366;2024-02-21T05:18:28;19.20;;;11.60;;
43606;SDS011;29197;44.788;10.366;2024-02-21T05:21:17;18.03;;;11.37;;
43606;SDS011;29197;44.788;10.366;2024-02-21T05:24:06;18.53;;;11.67;;
43606;SDS011;29197;44.788;10.366;2024-02-21T05:26:54;19.67;;;11.97;;
43606;SDS011;29197;44.788;10.366;2024-02-21T05:29:44;16.37;;;10.33;;
43606;SDS011;29197;44.788;10.366;2024-02-21T05:32:35;17.10;;;11.03;;
43606;SDS011;29197;44.788;10.366;2024-02-21T05:35:26;18.80;;;11.97;;
43606;SDS011;29197;44.788;10.366;2024-02-21T05:38:16;21.23;;;12.23;;
43606;SDS011;29197;44.788;10.366;2024-02-21T05:41:05;19.93;;;11.73;;
43606;SDS011;29197;44.788;10.366;2024-02-21T05:43:58;20.43;;;11.53;;
43606;SDS011;29197;44.788;10.366;2024-02-21T05:46:48;16.83;;;10.93;;
43606;SDS011;29197;44.788;10.366;2024-02-21T05:49:37;21.13;;;12.37;;
43606;SDS011;29197;44.788;10.366;2024-02-21T05:52:25;23.00;;;13.17;;
43606;SDS011;29197;44.788;10.366;2024-02-21T05:55:14;25.47;;;14.47;;
43606;SDS011;29197;44.788;10.366;2024-02-21T05:58:03;23.63;;;13.23;;
43606;SDS011;29197;44.788;10.366;2024-02-21T06:00:52;22.50;;;14.40;;
43606;SDS011;29197;44.788;10.366;2024-02-21T06:03:43;24.17;;;13.77;;
43606;SDS011;29197;44.788;10.366;2024-02-21T06:06:32;22.00;;;13.10;;
43606;SDS011;29197;44.788;10.366;2024-02-21T06:09:21;24.30;;;13.10;;
43606;SDS011;29197;44.788;10.366;2024-02-21T06:12:09;23.43;;;14.10;;
43606;SDS011;29197;44.788;10.366;2024-02-21T06:14:58;23.90;;;13.93;;
43606;SDS011;29197;44.788;10.366;2024-02-21T06:17:47;25.33;;;14.07;;
43606;SDS011;29197;44.788;10.366;2024-02-21T06:20:37;23.77;;;13.90;;
43606;SDS011;29197;44.788;10.366;2024-02-21T06:23:27;27.00;;;14.77;;
43606;SDS011;29197;44.788;10.366;2024-02-21T06:26:15;24.90;;;15.37;;
43606;SDS011;29197;44.788;10.366;2024-02-21T06:29:04;25.07;;;14.07;;
43606;SDS011;29197;44.788;10.366;2024-02-21T06:31:53;26.33;;;15.63;;
43606;SDS011;29197;44.788;10.366;2024-02-21T06:34:42;24.37;;;14.93;;
43606;SDS011;29197;44.788;10.366;2024-02-21T06:37:32;25.17;;;15.53;;
43606;SDS011;29197;44.788;10.366;2024-02-21T06:40:21;28.27;;;15.10;;
43606;SDS011;29197;44.788;10.366;2024-02-21T06:43:11;24.70;;;14.77;;
43606;SDS011;29197;44.788;10.366;2024-02-21T06:45:59;24.03;;;13.43;;
43606;SDS011;29197;44.788;10.366;2024-02-21T06:48:48;22.00;;;13.20;;
43606;SDS011;29197;44.788;10.366;2024-02-21T06:51:37;30.67;;;15.63;;
43606;SDS011;29197;44.788;10.366;2024-02-21T06:54:27;27.50;;;15.17;;
43606;SDS011;29197;44.788;10.366;2024-02-21T06:57:16;23.13;;;13.60;;
43606;SDS011;29197;44.788;10.366;2024-02-21T07:00:05;23.23;;;14.23;;
43606;SDS011;29197;44.788;10.366;2024-02-21T07:02:55;26.73;;;15.30;;
43606;SDS011;29197;44.788;10.366;2024-02-21T07:05:45;26.40;;;15.47;;
43606;SDS011;29197;44.788;10.366;2024-02-21T07:08:34;27.47;;;14.40;;
43606;SDS011;29197;44.788;10.366;2024-02-21T07:11:24;28.30;;;16.30;;
43606;SDS011;29197;44.788;10.366;2024-02-21T07:14:13;26.20;;;15.03;;
43606;SDS011;29197;44.788;10.366;2024-02-21T07:17:02;25.50;;;14.77;;
43606;SDS011;29197;44.788;10.366;2024-02-21T07:19:51;29.07;;;14.23;;
43606;SDS011;29197;44.788;10.366;2024-02-21T07:22:43;29.10;;;15.60;;
43606;SDS011;29197;44.788;10.366;2024-02-21T07:25:33;26.17;;;14.97;;
43606;SDS011;29197;44.788;10.366;2024-02-21T07:28:23;30.57;;;15.37;;
43606;SDS011;29197;44.788;10.366;2024-02-21T07:31:11;41.23;;;18.30;;
43606;SDS011;29197;44.788;10.366;2024-02-21T07:34:00;34.03;;;17.40;;
43606;SDS011;29197;44.788;10.366;2024-02-21T07:36:49;32.07;;;16.77;;
43606;SDS011;29197;44.788;10.366;2024-02-21T07:39:37;28.40;;;15.67;;
43606;SDS011;29197;44.788;10.366;2024-02-21T07:42:26;28.30;;;15.33;;
43606;SDS011;29197;44.788;10.366;2024-02-21T07:45:16;25.37;;;16.30;;
43606;SDS011;29197;44.788;10.366;2024-02-21T07:48:05;27.27;;;15.63;;
43606;SDS011;29197;44.788;10.366;2024-02-21T07:50:54;28.00;;;15.43;;
43606;SDS011;29197;44.788;10.366;2024-02-21T07:53:43;25.43;;;14.93;;
43606;SDS011;29197;44.788;10.366;2024-02-21T07:56:32;27.67;;;15.40;;
43606;SDS011;29197;44.788;10.366;2024-02-21T07:59:21;26.27;;;14.47;;
43606;SDS011;29197;44.788;10.366;2024-02-21T08:02:16;28.13;;;14.20;;
43606;SDS011;29197;44.788;10.366;2024-02-21T08:05:05;27.90;;;15.00;;
43606;SDS011;29197;44.788;10.366;2024-02-21T08:07:54;31.37;;;15.57;;
43606;SDS011;29197;44.788;10.366;2024-02-21T08:10:44;33.83;;;15.93;;
43606;SDS011;29197;44.788;10.366;2024-02-21T08:13:33;26.17;;;14.53;;
43606;SDS011;29197;44.788;10.366;2024-02-21T08:16:22;34.43;;;15.93;;
43606;SDS011;29197;44.788;10.366;2024-02-21T08:19:12;35.30;;;14.73;;
43606;SDS011;29197;44.788;10.366;2024-02-21T08:22:00;33.30;;;16.30;;
43606;SDS011;29197;44.788;10.366;2024-02-21T08:24:50;29.03;;;14.30;;
43606;SDS011;29197;44.788;10.366;2024-02-21T08:27:38;26.97;;;14.90;;
43606;SDS011;29197;44.788;10.366;2024-02-21T08:30:27;30.43;;;15.00;;
43606;SDS011;29197;44.788;10.366;2024-02-21T08:33:16;22.55;;;13.45;;
43606;SDS011;29197;44.788;10.366;2024-02-21T08:36:07;26.77;;;14.17;;
43606;SDS011;29197;44.788;10.366;2024-02-21T08:38:56;24.23;;;13.00;;
43606;SDS011;29197;44.788;10.366;2024-02-21T08:41:45;25.08;;;12.75;;
43606;SDS011;29197;44.788;10.366;2024-02-21T08:44:43;23.55;;;13.27;;
43606;SDS011;29197;44.788;10.366;2024-02-21T08:47:32;22.05;;;12.70;;
43606;SDS011;29197;44.788;10.366;2024-02-21T08:50:22;23.05;;;13.23;;
43606;SDS011;29197;44.788;10.366;2024-02-21T08:53:16;22.13;;;13.23;;
43606;SDS011;29197;44.788;10.366;2024-02-21T08:56:05;21.85;;;13.02;;
43606;SDS011;29197;44.788;10.366;2024-02-21T08:58:55;24.90;;;14.15;;
43606;SDS011;29197;44.788;10.366;2024-02-21T09:01:45;22.90;;;13.13;;
43606;SDS011;29197;44.788;10.366;2024-02-21T09:04:33;26.08;;;15.18;;
43606;SDS011;29197;44.788;10.366;2024-02-21T09:07:22;29.92;;;16.55;;
43606;SDS011;29197;44.788;10.366;2024-02-21T09:10:13;29.55;;;16.75;;
43606;SDS011;29197;44.788;10.366;2024-02-21T09:13:01;26.88;;;16.38;;
43606;SDS011;29197;44.788;10.366;2024-02-21T09:15:51;27.88;;;16.40;;
43606;SDS011;29197;44.788;10.366;2024-02-21T09:18:40;25.70;;;15.65;;
43606;SDS011;29197;44.788;10.366;2024-02-21T09:21:29;26.20;;;15.10;;
43606;SDS011;29197;44.788;10.366;2024-02-21T09:24:18;25.00;;;14.57;;
43606;SDS011;29197;44.788;10.366;2024-02-21T09:27:08;27.27;;;15.75;;
43606;SDS011;29197;44.788;10.366;2024-02-21T09:29:56;28.85;;;15.68;;
43606;SDS011;29197;44.788;10.366;2024-02-21T09:32:45;28.13;;;16.33;;
43606;SDS011;29197;44.788;10.366;2024-02-21T09:35:35;27.13;;;15.07;;
43606;SDS011;29197;44.788;10.366;2024-02-21T09:38:23;31.17;;;16.30;;
43606;SDS011;29197;44.788;10.366;2024-02-21T09:41:15;27.02;;;15.88;;
43606;SDS011;29197;44.788;10.366;2024-02-21T09:44:13;29.13;;;16.77;;
43606;SDS011;29197;44.788;10.366;2024-02-21T09:47:02;36.85;;;18.77;;
43606;SDS011;29197;44.788;10.366;2024-02-21T09:49:52;28.25;;;17.85;;
43606;SDS011;29197;44.788;10.366;2024-02-21T09:52:44;30.92;;;18.70;;
43606;SDS011;29197;44.788;10.366;2024-02-21T09:55:33;26.98;;;17.13;;
43606;SDS011;29197;44.788;10.366;2024-02-21T09:58:22;29.00;;;17.42;;
43606;SDS011;29197;44.788;10.366;2024-02-21T10:01:15;32.65;;;18.83;;
43606;SDS011;29197;44.788;10.366;2024-02-21T10:04:19;29.55;;;17.55;;
43606;SDS011;29197;44.788;10.366;2024-02-21T10:07:09;32.65;;;19.23;;
43606;SDS011;29197;44.788;10.366;2024-02-21T10:10:01;34.40;;;18.83;;
43606;SDS011;29197;44.788;10.366;2024-02-21T10:12:50;29.52;;;17.45;;
43606;SDS011;29197;44.788;10.366;2024-02-21T10:15:41;33.78;;;19.65;;
43606;SDS011;29197;44.788;10.366;2024-02-21T10:18:31;29.35;;;17.95;;
43606;SDS011;29197;44.788;10.366;2024-02-21T10:21:20;34.17;;;19.48;;
43606;SDS011;29197;44.788;10.366;2024-02-21T10:24:09;34.15;;;19.95;;
43606;SDS011;29197;44.788;10.366;2024-02-21T10:27:00;32.28;;;18.60;;
43606;SDS011;29197;44.788;10.366;2024-02-21T10:29:54;31.35;;;19.02;;
43606;SDS011;29197;44.788;10.366;2024-02-21T10:32:49;35.63;;;19.30;;
43606;SDS011;29197;44.788;10.366;2024-02-21T10:35:40;29.70;;;17.58;;
43606;SDS011;29197;44.788;10.366;2024-02-21T10:38:29;33.92;;;19.98;;
43606;SDS011;29197;44.788;10.366;2024-02-21T10:41:19;29.33;;;18.63;;
43606;SDS011;29197;44.788;10.366;2024-02-21T10:44:08;34.47;;;19.27;;
43606;SDS011;29197;44.788;10.366;2024-02-21T10:46:59;36.50;;;20.98;;
43606;SDS011;29197;44.788;10.366;2024-02-21T10:49:57;32.05;;;20.50;;
43606;SDS011;29197;44.788;10.366;2024-02-21T10:52:58;40.22;;;23.70;;
43606;SDS011;29197;44.788;10.366;2024-02-21T10:55:58;42.65;;;24.58;;
43606;SDS011;29197;44.788;10.366;2024-02-21T10:59:00;39.75;;;23.63;;
43606;SDS011;29197;44.788;10.366;2024-02-21T11:01:49;40.53;;;22.52;;
43606;SDS011;29197;44.788;10.366;2024-02-21T11:04:44;39.00;;;22.75;;
43606;SDS011;29197;44.788;10.366;2024-02-21T11:07:35;39.95;;;24.67;;
43606;SDS011;29197;44.788;10.366;2024-02-21T11:10:26;39.85;;;23.20;;
43606;SDS011;29197;44.788;10.366;2024-02-21T11:13:15;41.60;;;25.45;;
43606;SDS011;29197;44.788;10.366;2024-02-21T11:16:07;42.15;;;26.35;;
43606;SDS011;29197;44.788;10.366;2024-02-21T11:19:03;40.47;;;24.60;;
43606;SDS011;29197;44.788;10.366;2024-02-21T11:21:54;45.42;;;27.25;;
43606;SDS011;29197;44.788;10.366;2024-02-21T11:24:47;42.88;;;25.80;;
43606;SDS011;29197;44.788;10.366;2024-02-21T11:27:37;42.35;;;25.15;;
43606;SDS011;29197;44.788;10.366;2024-02-21T11:30:26;42.75;;;25.52;;
43606;SDS011;29197;44.788;10.366;2024-02-21T11:33:15;42.58;;;24.85;;
43606;SDS011;29197;44.788;10.366;2024-02-21T11:36:05;41.90;;;24.88;;
43606;SDS011;29197;44.788;10.366;2024-02-21T11:38:54;42.42;;;25.25;;
43606;SDS011;29197;44.788;10.366;2024-02-21T11:42:03;44.00;;;25.30;;
43606;SDS011;29197;44.788;10.366;2024-02-21T11:44:56;42.28;;;26.23;;
43606;SDS011;29197;44.788;10.366;2024-02-21T11:47:44;38.75;;;22.98;;
43606;SDS011;29197;44.788;10.366;2024-02-21T11:50:34;40.25;;;24.63;;
43606;SDS011;29197;44.788;10.366;2024-02-21T11:53:23;40.45;;;25.15;;
43606;SDS011;29197;44.788;10.366;2024-02-21T11:56:19;42.83;;;25.80;;
43606;SDS011;29197;44.788;10.366;2024-02-21T11:59:09;38.60;;;22.83;;
43606;SDS011;29197;44.788;10.366;2024-02-21T12:01:59;37.30;;;23.13;;
43606;SDS011;29197;44.788;10.366;2024-02-21T12:04:50;40.78;;;25.35;;
43606;SDS011;29197;44.788;10.366;2024-02-21T12:07:41;42.83;;;26.38;;
43606;SDS011;29197;44.788;10.366;2024-02-21T12:10:31;39.08;;;24.05;;
43606;SDS011;29197;44.788;10.366;2024-02-21T12:13:22;39.25;;;24.88;;
43606;SDS011;29197;44.788;10.366;2024-02-21T12:16:11;44.38;;;27.75;;
43606;SDS011;29197;44.788;10.366;2024-02-21T12:19:04;36.92;;;23.25;;
43606;SDS011;29197;44.788;10.366;2024-02-21T12:21:53;39.95;;;23.42;;
43606;SDS011;29197;44.788;10.366;2024-02-21T12:24:44;36.72;;;22.85;;
43606;SDS011;29197;44.788;10.366;2024-02-21T12:27:35;39.00;;;24.38;;
43606;SDS011;29197;44.788;10.366;2024-02-21T12:30:23;46.20;;;29.48;;
43606;SDS011;29197;44.788;10.366;2024-02-21T12:33:13;40.45;;;25.58;;
43606;SDS011;29197;44.788;10.366;2024-02-21T12:36:03;37.10;;;22.30;;
43606;SDS011;29197;44.788;10.366;2024-02-21T12:38:53;38.10;;;23.60;;
43606;SDS011;29197;44.788;10.366;2024-02-21T12:41:43;37.17;;;24.27;;
43606;SDS011;29197;44.788;10.366;2024-02-21T12:44:31;42.10;;;23.17;;
43606;SDS011;29197;44.788;10.366;2024-02-21T12:47:20;36.50;;;22.60;;
43606;SDS011;29197;44.788;10.366;2024-02-21T12:50:11;34.97;;;23.23;;
43606;SDS011;29197;44.788;10.366;2024-02-21T12:53:03;34.65;;;22.17;;
43606;SDS011;29197;44.788;10.366;2024-02-21T12:56:03;34.83;;;23.85;;
43606;SDS011;29197;44.788;10.366;2024-02-21T12:58:54;32.75;;;20.48;;
43606;SDS011;29197;44.788;10.366;2024-02-21T13:01:43;32.95;;;22.10;;
43606;SDS011;29197;44.788;10.366;2024-02-21T13:04:32;33.05;;;21.15;;
43606;SDS011;29197;44.788;10.366;2024-02-21T13:07:20;31.45;;;20.40;;
43606;SDS011;29197;44.788;10.366;2024-02-21T13:10:11;34.67;;;21.48;;
43606;SDS011;29197;44.788;10.366;2024-02-21T13:13:01;31.63;;;20.55;;
43606;SDS011;29197;44.788;10.366;2024-02-21T13:15:50;41.90;;;25.83;;
43606;SDS011;29197;44.788;10.366;2024-02-21T13:18:38;38.15;;;23.58;;
43606;SDS011;29197;44.788;10.366;2024-02-21T13:21:29;32.72;;;20.15;;
43606;SDS011;29197;44.788;10.366;2024-02-21T13:24:18;82.68;;;45.58;;
43606;SDS011;29197;44.788;10.366;2024-02-21T13:27:08;64.68;;;36.20;;
43606;SDS011;29197;44.788;10.366;2024-02-21T13:29:57;35.63;;;23.23;;
43606;SDS011;29197;44.788;10.366;2024-02-21T13:32:47;42.28;;;24.38;;
43606;SDS011;29197;44.788;10.366;2024-02-21T13:35:35;34.33;;;21.05;;
43606;SDS011;29197;44.788;10.366;2024-02-21T13:38:26;29.90;;;19.50;;
43606;SDS011;29197;44.788;10.366;2024-02-21T13:41:15;30.15;;;20.20;;
43606;SDS011;29197;44.788;10.366;2024-02-21T13:44:05;35.80;;;22.85;;
43606;SDS011;29197;44.788;10.366;2024-02-21T13:46:56;30.05;;;19.52;;
43606;SDS011;29197;44.788;10.366;2024-02-21T13:49:44;35.38;;;21.38;;
43606;SDS011;29197;44.788;10.366;2024-02-21T13:52:33;36.85;;;23.40;;
43606;SDS011;29197;44.788;10.366;2024-02-21T13:55:22;33.78;;;21.13;;
43606;SDS011;29197;44.788;10.366;2024-02-21T13:58:13;34.13;;;19.20;;
43606;SDS011;29197;44.788;10.366;2024-02-21T14:01:03;34.28;;;22.15;;
43606;SDS011;29197;44.788;10.366;2024-02-21T14:03:52;36.72;;;24.15;;
43606;SDS011;29197;44.788;10.366;2024-02-21T14:06:41;31.52;;;20.30;;
43606;SDS011;29197;44.788;10.366;2024-02-21T14:09:30;30.45;;;19.85;;
43606;SDS011;29197;44.788;10.366;2024-02-21T14:12:20;30.05;;;18.67;;
43606;SDS011;29197;44.788;10.366;2024-02-21T14:15:09;34.28;;;21.98;;
43606;SDS011;29197;44.788;10.366;2024-02-21T14:17:59;35.85;;;22.00;;
43606;SDS011;29197;44.788;10.366;2024-02-21T14:20:47;39.67;;;23.50;;
43606;SDS011;29197;44.788;10.366;2024-02-21T14:23:36;32.70;;;20.67;;
43606;SDS011;29197;44.788;10.366;2024-02-21T14:26:25;35.72;;;23.88;;
43606;SDS011;29197;44.788;10.366;2024-02-21T14:29:14;32.40;;;20.58;;
43606;SDS011;29197;44.788;10.366;2024-02-21T14:32:03;37.40;;;22.88;;
43606;SDS011;29197;44.788;10.366;2024-02-21T14:34:54;38.17;;;23.08;;
43606;SDS011;29197;44.788;10.366;2024-02-21T14:37:42;35.50;;;22.90;;
43606;SDS011;29197;44.788;10.366;2024-02-21T14:40:32;38.13;;;23.38;;
43606;SDS011;29197;44.788;10.366;2024-02-21T14:43:21;46.65;;;27.25;;
43606;SDS011;29197;44.788;10.366;2024-02-21T14:46:10;38.78;;;22.50;;
43606;SDS011;29197;44.788;10.366;2024-02-21T14:49:00;35.08;;;21.88;;
43606;SDS011;29197;44.788;10.366;2024-02-21T14:51:51;38.10;;;23.88;;
43606;SDS011;29197;44.788;10.366;2024-02-21T14:54:40;38.45;;;24.05;;
43606;SDS011;29197;44.788;10.366;2024-02-21T14:57:32;37.53;;;22.55;;
43606;SDS011;29197;44.788;10.366;2024-02-21T15:00:22;38.35;;;23.45;;
43606;SDS011;29197;44.788;10.366;2024-02-21T15:03:16;39.47;;;23.27;;
43606;SDS011;29197;44.788;10.366;2024-02-21T15:06:06;40.92;;;24.50;;
43606;SDS011;29197;44.788;10.366;2024-02-21T15:08:58;48.03;;;29.08;;
43606;SDS011;29197;44.788;10.366;2024-02-21T15:11:46;40.15;;;24.33;;
43606;SDS011;29197;44.788;10.366;2024-02-21T15:14:35;42.30;;;25.63;;
43606;SDS011;29197;44.788;10.366;2024-02-21T15:17:24;42.35;;;25.13;;
43606;SDS011;29197;44.788;10.366;2024-02-21T15:20:13;49.70;;;28.52;;
43606;SDS011;29197;44.788;10.366;2024-02-21T15:23:02;49.88;;;27.67;;
43606;SDS011;29197;44.788;10.366;2024-02-21T15:25:54;51.22;;;29.52;;
43606;SDS011;29197;44.788;10.366;2024-02-21T15:28:42;38.33;;;22.35;;
43606;SDS011;29197;44.788;10.366;2024-02-21T15:31:31;53.00;;;30.45;;
43606;SDS011;29197;44.788;10.366;2024-02-21T15:34:20;47.08;;;27.58;;
43606;SDS011;29197;44.788;10.366;2024-02-21T15:37:09;51.22;;;29.58;;
43606;SDS011;29197;44.788;10.366;2024-02-21T15:39:58;40.78;;;23.73;;
43606;SDS011;29197;44.788;10.366;2024-02-21T15:42:53;49.38;;;28.90;;
43606;SDS011;29197;44.788;10.366;2024-02-21T15:45:41;42.63;;;23.98;;
43606;SDS011;29197;44.788;10.366;2024-02-21T15:48:30;42.38;;;25.17;;
43606;SDS011;29197;44.788;10.366;2024-02-21T15:51:21;41.22;;;24.30;;
43606;SDS011;29197;44.788;10.366;2024-02-21T15:54:10;42.92;;;24.90;;
43606;SDS011;29197;44.788;10.366;2024-02-21T15:57:02;44.03;;;25.40;;
43606;SDS011;29197;44.788;10.366;2024-02-21T15:59:54;47.22;;;26.40;;
43606;SDS011;29197;44.788;10.366;2024-02-21T16:02:43;41.85;;;24.88;;
43606;SDS011;29197;44.788;10.366;2024-02-21T16:05:32;53.28;;;30.02;;
43606;SDS011;29197;44.788;10.366;2024-02-21T16:08:20;44.65;;;26.10;;
43606;SDS011;29197;44.788;10.366;2024-02-21T16:11:10;43.45;;;25.63;;
43606;SDS011;29197;44.788;10.366;2024-02-21T16:14:04;49.28;;;29.35;;
43606;SDS011;29197;44.788;10.366;2024-02-21T16:16:55;43.42;;;27.25;;
43606;SDS011;29197;44.788;10.366;2024-02-21T16:19:44;41.53;;;25.08;;